USCM

Details ICAO USCM (MQF)
Name MAGNITOGORSK
Region Russia
Timezone Asia/Yekaterinburg (UTC+5.0)
Plans Departing 27
Arriving 14
Stats Elevation 1,431 ft / 436 m (AMSL)
Location 53.393132° 58.755661°
Runways 1
Magnetic Variation 12.521° E
Sunrise 2017-12-15 04:15:33 UTC / 2017-12-15 09:15:33 Local
Sunset 2017-12-15 11:47:21 UTC / 2017-12-15 16:47:21 Local
Advertisement - Login to hide

Runways

ID Width Length Bearing (true) Bearing (mag) Surface Threshold Offset Overrun Length
01 148 ft / 45 m 10,648 ft / 3,246 m 16.20° 3.68° Concrete 0 ft / 0 m 140 ft / 43 m
19 148 ft / 45 m 10,648 ft / 3,246 m 196.21° 183.69° Concrete 0 ft / 0 m 140 ft / 43 m

Map

Weather


0- 5 10 15 20 25 30 35+ Temperature / ° C

Clouds and Precipitation
Forecast for 2017-12-16 00:00 UTC. Updated 32 minutes ago

Ground ~20,000 ft ~40,000 ft Winds

METAR

USCM 151930Z 00000MPS 5000 BR NSC M22/M25 Q1038 R18/090060 TEMPO 0300 FZFG VV002 RMK QFE740

TAF

Not found

Frequencies

Tower 124.00 MHz TWR
Tower 120.80 MHz TWR
Warning: Do not use this data for real-world aviation or navigation. No guarantee of current accuracy is given.